createdAt,value
2017-10-29T00:00:06.815Z,15.59
2017-10-29T00:00:47.368Z,15.59
2017-10-29T00:01:27.945Z,15.62
2017-10-29T00:02:08.336Z,15.58
2017-10-29T00:02:48.860Z,15.62
2017-10-29T00:03:29.266Z,15.59
2017-10-29T00:04:09.918Z,15.62
2017-10-29T00:04:50.406Z,15.59
2017-10-29T00:05:30.839Z,15.62
2017-10-29T00:06:11.551Z,15.53
2017-10-29T00:06:52.004Z,15.59
2017-10-29T00:07:32.456Z,15.59
2017-10-29T00:08:12.984Z,15.62
2017-10-29T00:08:53.480Z,15.62
2017-10-29T00:09:34.046Z,15.62
2017-10-29T00:10:14.481Z,15.66
2017-10-29T00:10:54.919Z,15.68
2017-10-29T00:11:35.337Z,15.74
2017-10-29T00:12:15.759Z,15.66
2017-10-29T00:12:56.285Z,15.66
2017-10-29T00:13:36.747Z,15.68
2017-10-29T00:14:17.334Z,15.76
2017-10-29T00:14:57.831Z,15.73
2017-10-29T00:15:38.360Z,15.7
2017-10-29T00:16:18.812Z,15.7
2017-10-29T00:16:59.481Z,15.68
2017-10-29T00:17:40.005Z,15.78
2017-10-29T00:18:20.385Z,15.74
2017-10-29T00:19:00.903Z,15.8
2017-10-29T00:19:41.314Z,15.8
2017-10-29T00:20:21.857Z,15.85
2017-10-29T00:21:02.244Z,15.85
2017-10-29T00:21:42.720Z,15.85
2017-10-29T00:22:23.190Z,15.78
2017-10-29T00:23:03.703Z,15.81
2017-10-29T00:23:44.254Z,15.8
2017-10-29T00:24:24.786Z,15.74
2017-10-29T00:25:05.144Z,15.81
2017-10-29T00:25:45.759Z,15.76
2017-10-29T00:26:26.306Z,15.71
2017-10-29T00:27:06.930Z,15.7
2017-10-29T00:27:47.510Z,15.7
2017-10-29T00:28:27.972Z,15.62
2017-10-29T00:29:08.546Z,15.73
2017-10-29T00:29:49.027Z,15.74
2017-10-29T00:30:29.416Z,15.77
2017-10-29T00:31:10.010Z,15.74
2017-10-29T00:31:50.798Z,15.68
2017-10-29T00:32:31.035Z,15.84
2017-10-29T00:33:11.593Z,15.84
2017-10-29T00:33:52.084Z,15.77
2017-10-29T00:34:32.545Z,15.85
2017-10-29T00:35:13.200Z,15.84
2017-10-29T00:35:53.727Z,15.78
2017-10-29T00:36:34.183Z,15.84
2017-10-29T00:37:14.736Z,15.85
2017-10-29T00:37:55.122Z,15.85
2017-10-29T00:38:35.432Z,15.89
2017-10-29T00:39:15.984Z,15.85
2017-10-29T00:39:56.482Z,15.93
2017-10-29T00:40:36.967Z,15.96
2017-10-29T00:41:17.493Z,15.86
2017-10-29T00:41:57.873Z,15.91
2017-10-29T00:42:38.332Z,15.98
2017-10-29T00:43:18.847Z,16.08
2017-10-29T00:43:59.422Z,16.06
2017-10-29T00:44:39.752Z,16.04
2017-10-29T00:45:20.464Z,16.06
2017-10-29T00:46:01.633Z,15.96
2017-10-29T00:46:41.522Z,16.01
2017-10-29T00:47:21.940Z,16.01
2017-10-29T00:48:02.527Z,15.96
2017-10-29T00:48:43.006Z,15.95
2017-10-29T00:49:23.447Z,15.98
2017-10-29T00:50:03.955Z,16.06
2017-10-29T00:50:44.350Z,15.99
2017-10-29T00:51:24.832Z,16.06
2017-10-29T00:52:05.266Z,16.06
2017-10-29T00:52:46.019Z,16.08
2017-10-29T00:53:26.444Z,16.07
2017-10-29T00:54:06.898Z,16.07
2017-10-29T00:54:47.340Z,16.11
2017-10-29T00:55:27.755Z,16.16
2017-10-29T00:56:08.335Z,16.03
2017-10-29T00:56:48.852Z,16.06
2017-10-29T00:57:29.297Z,16.14
2017-10-29T00:58:09.963Z,16.07
2017-10-29T00:58:50.431Z,16.11
2017-10-29T00:59:31.580Z,16.14
2017-10-29T01:00:12.122Z,16.14
2017-10-29T01:00:52.892Z,16.26
2017-10-29T01:01:33.663Z,16.26
2017-10-29T01:02:14.101Z,16.11
2017-10-29T01:02:54.849Z,16.17
2017-10-29T01:03:35.063Z,16.16
2017-10-29T01:04:15.769Z,16.11
2017-10-29T01:04:56.327Z,16.18
2017-10-29T01:05:37.000Z,16.27
2017-10-29T01:06:17.106Z,16.18
2017-10-29T01:06:57.777Z,16.17
2017-10-29T01:07:38.329Z,16.23
2017-10-29T01:08:18.742Z,16.23
2017-10-29T01:08:59.209Z,16.23
2017-10-29T01:09:39.652Z,16.17
2017-10-29T01:10:20.018Z,16.22
2017-10-29T01:11:00.453Z,16.3
2017-10-29T01:11:41.051Z,16.27
2017-10-29T01:12:21.476Z,16.3
2017-10-29T01:13:01.871Z,16.33
2017-10-29T01:13:42.325Z,16.26
2017-10-29T01:14:22.688Z,16.27
2017-10-29T01:15:03.123Z,16.25
2017-10-29T01:15:43.659Z,16.34
2017-10-29T01:16:24.203Z,16.18
2017-10-29T01:17:04.678Z,16.23
2017-10-29T01:17:45.139Z,16.13
2017-10-29T01:18:25.666Z,16.17
2017-10-29T01:19:06.292Z,16.23
2017-10-29T01:19:46.855Z,16.18
2017-10-29T01:20:27.320Z,16.14
2017-10-29T01:21:08.184Z,16.25
2017-10-29T01:21:48.602Z,16.1
2017-10-29T01:22:29.090Z,16.1
2017-10-29T01:23:09.549Z,16.08
2017-10-29T01:23:49.997Z,16.07
2017-10-29T01:24:30.498Z,16.11
2017-10-29T01:25:10.969Z,16.13
2017-10-29T01:25:51.454Z,16.16
2017-10-29T01:26:31.853Z,16.14
2017-10-29T01:27:12.287Z,16.14
2017-10-29T01:27:52.887Z,16.22
2017-10-29T01:28:33.446Z,16.11
2017-10-29T01:29:13.864Z,16.07
2017-10-29T01:29:54.307Z,16.07
2017-10-29T01:30:34.883Z,16.11
2017-10-29T01:31:15.338Z,16.11
2017-10-29T01:31:55.879Z,16.11
2017-10-29T01:32:36.600Z,16.07
2017-10-29T01:33:17.362Z,16.03
2017-10-29T01:33:57.597Z,16.06
2017-10-29T01:34:37.963Z,15.98
2017-10-29T01:35:18.469Z,15.89
2017-10-29T01:35:59.202Z,15.93
2017-10-29T01:36:39.614Z,15.99
2017-10-29T01:37:20.155Z,16.03
2017-10-29T01:38:00.623Z,15.95
2017-10-29T01:38:41.173Z,16.04
2017-10-29T01:39:21.903Z,16.06
2017-10-29T01:40:02.446Z,15.99
2017-10-29T01:40:42.918Z,16.04
2017-10-29T01:41:23.257Z,16.06
2017-10-29T01:42:03.744Z,16.06
2017-10-29T01:42:44.277Z,16.03
2017-10-29T01:43:24.709Z,16.06
2017-10-29T01:44:05.226Z,16.04
2017-10-29T01:44:45.634Z,15.92
2017-10-29T01:45:26.045Z,15.92
2017-10-29T01:46:06.502Z,15.99
2017-10-29T01:46:46.963Z,15.95
2017-10-29T01:47:27.499Z,15.88
2017-10-29T01:48:07.986Z,15.91
2017-10-29T01:48:48.611Z,15.96
2017-10-29T01:49:29.142Z,15.95
2017-10-29T01:50:09.486Z,15.89
2017-10-29T01:50:50.066Z,15.86
2017-10-29T01:51:30.498Z,15.95
2017-10-29T01:52:10.858Z,15.85
2017-10-29T01:52:51.512Z,15.86
2017-10-29T01:53:31.918Z,15.85
2017-10-29T01:54:12.321Z,15.81
2017-10-29T01:54:52.897Z,15.86
2017-10-29T01:55:33.316Z,15.84
2017-10-29T01:56:13.775Z,15.8
2017-10-29T01:56:54.171Z,15.85
2017-10-29T01:57:34.754Z,15.84
2017-10-29T01:58:15.218Z,15.86
2017-10-29T01:58:55.664Z,15.78
2017-10-29T01:59:36.184Z,15.86
2017-10-29T02:00:16.758Z,15.78
2017-10-29T02:00:57.135Z,15.8
2017-10-29T02:01:37.591Z,15.85
2017-10-29T02:02:18.357Z,15.85
2017-10-29T02:02:59.003Z,15.71
2017-10-29T02:03:39.523Z,15.77
2017-10-29T02:04:20.027Z,15.74
2017-10-29T02:05:00.493Z,15.74
2017-10-29T02:05:40.970Z,15.77
2017-10-29T02:06:21.410Z,15.68
2017-10-29T02:07:01.957Z,15.85
2017-10-29T02:07:42.397Z,15.85
2017-10-29T02:08:22.891Z,15.77
2017-10-29T02:09:03.381Z,15.74
2017-10-29T02:09:43.705Z,15.86
2017-10-29T02:10:24.213Z,15.84
2017-10-29T02:12:15.903Z,15.68
2017-10-29T02:13:10.728Z,15.62
2017-10-29T02:14:03.833Z,15.6
2017-10-29T02:14:55.617Z,15.64
2017-10-29T02:15:57.206Z,15.62
2017-10-29T02:16:51.660Z,15.66
2017-10-29T02:17:48.058Z,15.67
2017-10-29T02:18:45.169Z,15.6
2017-10-29T02:21:31.226Z,15.53
2017-10-29T02:23:35.141Z,15.44
2017-10-29T02:24:16.654Z,15.48
2017-10-29T02:24:57.020Z,15.41
2017-10-29T02:25:37.594Z,15.4
2017-10-29T02:26:17.965Z,15.43
2017-10-29T02:26:58.470Z,15.4
2017-10-29T02:27:39.016Z,15.37
2017-10-29T02:28:19.405Z,15.3
2017-10-29T02:28:59.894Z,15.34
2017-10-29T02:29:40.409Z,15.33
2017-10-29T02:30:20.920Z,15.31
2017-10-29T02:31:01.307Z,15.18
2017-10-29T02:31:41.801Z,15.19
2017-10-29T02:32:22.187Z,15.25
2017-10-29T02:33:02.598Z,15.18
2017-10-29T02:33:43.344Z,15.16
2017-10-29T02:34:23.555Z,15.16
2017-10-29T02:35:04.143Z,15.2
2017-10-29T02:35:44.523Z,15.18
2017-10-29T02:36:24.904Z,15.27
2017-10-29T02:37:05.419Z,15.15
2017-10-29T02:37:45.959Z,15.15
2017-10-29T02:38:26.452Z,15.18
2017-10-29T02:40:15.682Z,15.13
2017-10-29T02:40:59.772Z,15.11
2017-10-29T02:41:37.889Z,15.16
2017-10-29T02:42:18.394Z,15.15
2017-10-29T02:42:58.887Z,15.13
2017-10-29T02:43:39.718Z,15.12
2017-10-29T02:44:20.196Z,15.15
2017-10-29T02:45:00.736Z,15.2
2017-10-29T02:45:41.275Z,15.2
2017-10-29T02:46:21.586Z,15.23
2017-10-29T02:47:02.195Z,15.22
2017-10-29T02:47:42.783Z,15.18
2017-10-29T02:48:23.127Z,15.15
2017-10-29T02:49:03.686Z,15.19
2017-10-29T02:49:44.166Z,15.15
2017-10-29T02:50:24.674Z,15.13
2017-10-29T02:51:05.238Z,15.19
2017-10-29T02:51:45.646Z,15.13
2017-10-29T02:52:26.071Z,15.11
2017-10-29T02:53:06.609Z,15.16
2017-10-29T02:53:47.176Z,15.13
2017-10-29T02:54:27.478Z,15.01
2017-10-29T02:55:07.845Z,15.09
2017-10-29T02:55:48.369Z,15.05
2017-10-29T02:56:28.815Z,15.09
2017-10-29T02:57:09.324Z,15.05
2017-10-29T02:57:49.861Z,15.09
2017-10-29T02:58:30.370Z,15.16
2017-10-29T02:59:10.980Z,15.01
2017-10-29T02:59:51.340Z,15.04
2017-10-29T03:00:31.859Z,14.97
2017-10-29T03:01:12.303Z,14.97
2017-10-29T03:01:52.765Z,14.94
2017-10-29T03:02:33.263Z,15.05
2017-10-29T03:03:13.780Z,15.11
2017-10-29T03:03:54.151Z,15.11
2017-10-29T03:04:34.566Z,15.01
2017-10-29T03:05:15.019Z,15.05
2017-10-29T03:05:55.659Z,15.03
2017-10-29T03:06:36.530Z,15
2017-10-29T03:07:16.752Z,15.05
2017-10-29T03:07:57.093Z,15.01
2017-10-29T03:08:37.537Z,15.12
2017-10-29T03:09:18.065Z,15.05
2017-10-29T03:09:58.569Z,15.12
2017-10-29T03:10:39.114Z,15.15
2017-10-29T03:11:19.664Z,15.12
2017-10-29T03:12:00.194Z,15.13
2017-10-29T03:12:40.781Z,15.19
2017-10-29T03:13:21.190Z,15.16
2017-10-29T03:14:01.642Z,15.15
2017-10-29T03:14:42.078Z,15.11
2017-10-29T03:15:22.675Z,15.09
2017-10-29T03:16:03.223Z,15.12
2017-10-29T03:16:43.750Z,15.12
2017-10-29T03:17:24.258Z,15.07
2017-10-29T03:18:04.630Z,15.07
2017-10-29T03:18:45.397Z,15.01
2017-10-29T03:19:25.888Z,15.05
2017-10-29T03:20:06.301Z,15.04
2017-10-29T03:20:46.840Z,15.07
2017-10-29T03:21:27.282Z,15.04
2017-10-29T03:22:07.787Z,15.12
2017-10-29T03:22:48.339Z,15.19
2017-10-29T03:23:29.124Z,15.18
2017-10-29T03:24:09.796Z,15.13
2017-10-29T03:24:50.289Z,15.19
2017-10-29T03:25:30.691Z,15.13
2017-10-29T03:26:11.281Z,15.19
2017-10-29T03:26:51.745Z,15.04
2017-10-29T03:27:32.267Z,15.04
2017-10-29T03:28:12.953Z,14.97
2017-10-29T03:28:53.346Z,15.13
2017-10-29T03:29:33.864Z,15.07
2017-10-29T03:30:14.339Z,15.01
2017-10-29T03:30:54.827Z,15.04
2017-10-29T03:31:35.464Z,15.03
2017-10-29T03:32:16.241Z,15.01
2017-10-29T03:32:56.970Z,15.05
2017-10-29T03:33:37.509Z,15
2017-10-29T03:34:18.130Z,14.95
2017-10-29T03:34:58.714Z,14.98
2017-10-29T03:35:39.127Z,14.95
2017-10-29T03:36:19.657Z,15.03
2017-10-29T03:37:00.365Z,15.04
2017-10-29T03:37:40.858Z,15
2017-10-29T03:38:21.380Z,15.04
2017-10-29T03:39:02.000Z,15.04
2017-10-29T03:39:42.589Z,15.04
2017-10-29T03:40:22.985Z,15.04
2017-10-29T03:41:03.536Z,15.09
2017-10-29T03:41:43.950Z,14.97
2017-10-29T03:42:24.433Z,15
2017-10-29T03:43:05.157Z,14.97
2017-10-29T03:43:45.684Z,15.11
2017-10-29T03:44:26.257Z,15.01
2017-10-29T03:45:06.660Z,15.07
2017-10-29T03:45:47.227Z,15.05
2017-10-29T03:46:27.748Z,15.09
2017-10-29T03:47:08.104Z,15.05
2017-10-29T03:47:48.500Z,15.04
2017-10-29T03:48:29.029Z,15.07
2017-10-29T03:49:09.454Z,15.03
2017-10-29T03:49:49.945Z,15.04
2017-10-29T03:50:30.445Z,15.03
2017-10-29T03:51:10.963Z,15.04
2017-10-29T03:51:51.772Z,15.07
2017-10-29T03:52:32.350Z,15.04
2017-10-29T03:53:12.862Z,15.04
2017-10-29T03:53:53.303Z,15.04
2017-10-29T03:54:33.872Z,15.07
2017-10-29T03:55:14.343Z,15.03
2017-10-29T03:55:54.849Z,15.04
2017-10-29T03:56:35.339Z,15.04
2017-10-29T03:57:15.657Z,15.07
2017-10-29T03:57:56.261Z,15.01
2017-10-29T03:58:37.283Z,15.01
2017-10-29T03:59:17.731Z,15.16
2017-10-29T03:59:58.278Z,15.16
2017-10-29T04:00:38.725Z,15.12
2017-10-29T04:01:19.708Z,15.05
2017-10-29T04:44:19.067Z,14.75
2017-10-29T04:44:59.769Z,14.75
2017-10-29T04:45:40.093Z,14.72
2017-10-29T04:46:20.589Z,14.75
2017-10-29T04:47:01.024Z,14.74
2017-10-29T04:47:41.550Z,14.67
2017-10-29T04:48:21.999Z,14.74
2017-10-29T04:49:02.494Z,14.69
2017-10-29T04:49:42.937Z,14.74
2017-10-29T04:50:23.459Z,14.74
2017-10-29T04:51:03.994Z,14.78
2017-10-29T04:51:44.491Z,14.87
2017-10-29T04:52:24.851Z,14.83
2017-10-29T04:53:05.555Z,14.79
2017-10-29T04:53:46.079Z,14.78
2017-10-29T04:54:26.792Z,14.69
2017-10-29T04:55:07.255Z,14.86
2017-10-29T04:55:47.640Z,14.83
2017-10-29T04:56:28.204Z,14.78
2017-10-29T04:57:08.709Z,14.86
2017-10-29T04:57:49.086Z,14.91
2017-10-29T04:58:29.612Z,14.83
2017-10-29T04:59:09.997Z,14.79
2017-10-29T04:59:50.571Z,14.82
2017-10-29T05:00:30.997Z,14.83
2017-10-29T05:01:11.667Z,14.83
2017-10-29T05:01:52.304Z,14.83
2017-10-29T05:02:32.788Z,14.8
2017-10-29T05:03:13.190Z,14.83
2017-10-29T05:03:53.896Z,14.69
2017-10-29T05:04:34.400Z,14.78
2017-10-29T05:05:14.941Z,14.75
2017-10-29T05:05:55.410Z,14.85
2017-10-29T05:06:36.191Z,14.83
2017-10-29T05:07:16.580Z,14.9
2017-10-29T05:07:57.243Z,14.87
2017-10-29T05:08:37.586Z,14.93
2017-10-29T05:09:18.060Z,14.9
2017-10-29T05:09:58.479Z,14.91
2017-10-29T05:10:38.967Z,14.93
2017-10-29T05:11:19.380Z,15.01
2017-10-29T05:12:00.039Z,14.98
2017-10-29T05:12:40.401Z,15.05
2017-10-29T05:13:21.190Z,15.03
2017-10-29T05:14:01.549Z,15.04
2017-10-29T05:14:42.263Z,15.01
2017-10-29T05:15:22.726Z,14.98
2017-10-29T05:16:03.247Z,14.95
2017-10-29T05:16:43.678Z,15.01
2017-10-29T05:17:24.331Z,15.01
2017-10-29T05:18:04.671Z,15
2017-10-29T05:18:45.184Z,15.04
2017-10-29T05:19:25.605Z,14.94
2017-10-29T05:20:06.242Z,15.03
2017-10-29T05:20:46.544Z,14.94
2017-10-29T05:21:27.024Z,15.01
2017-10-29T05:22:07.392Z,15
2017-10-29T05:22:47.942Z,15.04
2017-10-29T05:23:28.385Z,14.97
2017-10-29T05:24:09.042Z,15.01
2017-10-29T05:24:49.514Z,15.03
2017-10-29T05:25:29.924Z,15.16
2017-10-29T05:26:10.338Z,15.05
2017-10-29T05:26:50.856Z,15.05
2017-10-29T05:27:31.210Z,15.13
2017-10-29T05:28:11.633Z,15.07
2017-10-29T05:28:52.140Z,15
2017-10-29T05:29:32.649Z,14.98
2017-10-29T05:30:13.073Z,14.95
2017-10-29T05:30:53.569Z,14.93
2017-10-29T05:31:34.041Z,14.8
2017-10-29T05:32:14.642Z,14.64
2017-10-29T05:32:55.076Z,14.61
2017-10-29T05:33:35.662Z,14.49
2017-10-29T05:34:16.273Z,14.46
2017-10-29T05:34:56.746Z,14.34
2017-10-29T05:35:37.232Z,14.24
2017-10-29T05:36:17.614Z,14.13
2017-10-29T05:36:58.084Z,14.05
2017-10-29T05:37:38.605Z,13.91
2017-10-29T05:38:18.906Z,13.88
2017-10-29T05:38:59.464Z,13.87
2017-10-29T05:39:39.968Z,13.73
2017-10-29T05:40:20.497Z,13.66
2017-10-29T05:41:00.965Z,13.66
2017-10-29T05:41:41.463Z,13.5
2017-10-29T05:42:22.014Z,13.54
2017-10-29T05:43:02.488Z,13.46
2017-10-29T05:43:43.110Z,13.48
2017-10-29T05:44:23.718Z,13.44
2017-10-29T05:45:04.357Z,13.43
2017-10-29T05:45:44.813Z,13.47
2017-10-29T05:46:25.269Z,13.27
2017-10-29T05:47:05.816Z,13.41
2017-10-29T05:47:46.197Z,13.38
2017-10-29T05:48:26.904Z,13.41
2017-10-29T05:49:07.365Z,13.31
2017-10-29T05:49:47.793Z,13.35
2017-10-29T05:50:28.261Z,13.35
2017-10-29T05:51:09.123Z,13.32
2017-10-29T05:51:49.871Z,13.36
2017-10-29T05:52:30.292Z,13.28
2017-10-29T05:53:10.752Z,13.28
2017-10-29T05:53:51.304Z,13.28
2017-10-29T05:54:31.703Z,13.35
2017-10-29T05:55:12.011Z,13.31
2017-10-29T05:55:52.448Z,13.48
2017-10-29T05:56:32.855Z,13.48
2017-10-29T05:57:13.236Z,13.47
2017-10-29T05:57:53.790Z,13.57
2017-10-29T05:58:34.197Z,13.54
2017-10-29T05:59:14.627Z,13.54
2017-10-29T05:59:55.143Z,13.68
2017-10-29T06:00:35.567Z,13.61
2017-10-29T06:01:16.113Z,13.61
2017-10-29T06:01:56.622Z,13.61
2017-10-29T06:02:37.174Z,13.59
2017-10-29T06:03:17.583Z,13.66
2017-10-29T06:03:58.390Z,13.68
2017-10-29T06:06:01.133Z,13.76
2017-10-29T06:06:42.438Z,13.84
2017-10-29T06:07:22.908Z,13.83
2017-10-29T06:08:03.449Z,13.86
2017-10-29T06:08:43.928Z,13.9
2017-10-29T06:09:24.308Z,13.86
2017-10-29T06:10:04.750Z,13.88
2017-10-29T06:10:45.358Z,13.93
2017-10-29T06:11:25.981Z,13.88
2017-10-29T06:12:06.234Z,13.9
2017-10-29T06:12:46.846Z,13.87
2017-10-29T06:13:27.246Z,13.87
2017-10-29T06:14:07.869Z,13.88
2017-10-29T06:14:48.322Z,13.93
2017-10-29T06:15:28.727Z,13.86
2017-10-29T06:16:09.164Z,13.86
2017-10-29T06:16:49.897Z,13.91
2017-10-29T06:17:30.180Z,13.86
2017-10-29T06:18:10.632Z,13.84
2017-10-29T06:18:51.108Z,13.9
2017-10-29T06:19:31.627Z,13.88
2017-10-29T06:20:12.103Z,13.81
2017-10-29T06:20:52.505Z,13.91
2017-10-29T06:21:32.950Z,13.86
2017-10-29T06:22:13.520Z,13.86
2017-10-29T06:22:53.833Z,13.91
2017-10-29T06:23:34.241Z,13.84
2017-10-29T06:24:16.471Z,13.86
2017-10-29T06:24:56.962Z,13.87
2017-10-29T06:25:37.403Z,13.99
2017-10-29T06:26:17.821Z,13.88
2017-10-29T06:26:58.520Z,13.9
2017-10-29T06:27:38.834Z,13.86
2017-10-29T06:28:19.276Z,13.84
2017-10-29T06:28:59.744Z,13.91
2017-10-29T06:29:40.405Z,13.86
2017-10-29T06:30:21.192Z,13.91
2017-10-29T06:31:01.477Z,13.88
2017-10-29T06:31:41.807Z,13.9
2017-10-29T06:32:22.432Z,13.91
2017-10-29T06:33:02.923Z,13.98
2017-10-29T06:33:43.395Z,13.87
2017-10-29T06:34:23.821Z,13.87
2017-10-29T06:35:04.209Z,13.98
2017-10-29T06:35:44.653Z,13.96
2017-10-29T06:36:25.198Z,13.98
2017-10-29T06:37:05.626Z,13.99
2017-10-29T06:37:46.160Z,14.04
2017-10-29T06:38:26.606Z,13.98
2017-10-29T06:39:07.151Z,14.06
2017-10-29T06:39:47.716Z,14.04
2017-10-29T06:40:28.146Z,14.06
2017-10-29T06:41:08.727Z,13.96
2017-10-29T06:41:49.027Z,14.05
2017-10-29T06:42:29.485Z,14.08
2017-10-29T06:43:09.853Z,14.08
2017-10-29T06:43:50.415Z,14.11
2017-10-29T06:44:31.171Z,14.13
2017-10-29T06:45:11.608Z,14.12
2017-10-29T06:45:52.058Z,14.12
2017-10-29T06:46:32.517Z,14.11
2017-10-29T06:47:13.102Z,14.17
2017-10-29T06:47:53.489Z,14.19
2017-10-29T06:48:34.171Z,14.29
2017-10-29T06:49:14.524Z,14.24
2017-10-29T06:49:54.911Z,14.27
2017-10-29T06:50:35.338Z,14.26
2017-10-29T06:51:15.741Z,14.24
2017-10-29T06:51:56.314Z,14.27
2017-10-29T06:52:37.187Z,14.34
2017-10-29T06:53:18.256Z,14.16
2017-10-29T06:53:58.541Z,14.27
2017-10-29T06:54:39.249Z,14.19
2017-10-29T06:55:19.630Z,14.16
2017-10-29T06:56:00.134Z,14.16
2017-10-29T06:56:40.516Z,14.11
2017-10-29T06:57:21.125Z,14.11
2017-10-29T06:58:01.600Z,14.01
2017-10-29T06:58:42.056Z,14.11
2017-10-29T06:59:22.511Z,14.06
2017-10-29T07:00:02.888Z,14.09
2017-10-29T07:00:43.418Z,14.19
2017-10-29T07:01:23.835Z,14.16
2017-10-29T07:02:04.545Z,14.12
2017-10-29T07:02:45.098Z,14.19
2017-10-29T07:03:25.581Z,14.06
2017-10-29T07:04:06.037Z,14.11
2017-10-29T07:04:46.475Z,14.13
2017-10-29T07:05:26.910Z,14.05
2017-10-29T07:06:07.247Z,14.06
2017-10-29T07:06:47.733Z,13.96
2017-10-29T07:07:28.573Z,13.88
2017-10-29T07:08:09.203Z,13.88
2017-10-29T07:08:49.593Z,13.93
2017-10-29T07:09:30.093Z,13.91
2017-10-29T07:10:10.682Z,13.93
2017-10-29T07:10:51.303Z,13.96
2017-10-29T07:11:31.694Z,13.9
2017-10-29T07:12:12.116Z,13.87
2017-10-29T07:12:52.591Z,13.88
2017-10-29T07:13:32.932Z,13.94
2017-10-29T07:14:13.444Z,13.96
2017-10-29T07:14:54.026Z,14.02
2017-10-29T07:15:34.398Z,14.12
2017-10-29T07:16:14.977Z,14.12
2017-10-29T07:16:55.410Z,14.16
2017-10-29T07:17:35.888Z,14.29
2017-10-29T07:18:16.307Z,14.27
2017-10-29T07:18:56.863Z,14.44
2017-10-29T07:19:37.405Z,14.53
2017-10-29T07:20:17.803Z,14.59
2017-10-29T07:20:58.246Z,14.63
2017-10-29T07:21:38.714Z,14.66
2017-10-29T07:22:19.284Z,14.75
2017-10-29T07:22:59.854Z,14.82
2017-10-29T07:23:40.469Z,14.87
2017-10-29T07:24:21.083Z,15.01
2017-10-29T07:25:01.534Z,15.01
2017-10-29T07:25:42.057Z,15.15
2017-10-29T07:26:22.706Z,15.23
2017-10-29T07:27:03.116Z,15.19
2017-10-29T07:27:43.724Z,15.27
2017-10-29T07:28:24.155Z,15.28
2017-10-29T07:29:04.751Z,15.33
2017-10-29T07:29:45.183Z,15.3
2017-10-29T07:30:25.727Z,15.38
2017-10-29T07:31:06.168Z,15.34
2017-10-29T07:31:46.730Z,15.44
2017-10-29T07:32:27.105Z,15.44
2017-10-29T07:33:07.672Z,15.52
2017-10-29T07:33:48.288Z,15.52
2017-10-29T07:35:45.658Z,15.66
2017-10-29T07:36:44.132Z,15.84
2017-10-29T07:39:37.920Z,16.03
2017-10-29T07:40:18.437Z,15.95
2017-10-29T07:40:58.993Z,16.01
2017-10-29T07:41:39.351Z,16.04
2017-10-29T07:42:19.953Z,15.91
2017-10-29T07:43:00.433Z,15.92
2017-10-29T07:43:40.922Z,15.88
2017-10-29T07:44:21.444Z,15.99
2017-10-29T07:45:01.865Z,16.04
2017-10-29T07:45:42.265Z,16.08
2017-10-29T07:46:22.717Z,16.18
2017-10-29T07:47:03.086Z,16.23
2017-10-29T07:47:43.904Z,16.26
2017-10-29T07:48:24.212Z,16.4
2017-10-29T07:49:04.746Z,16.3
2017-10-29T07:49:45.261Z,16.37
2017-10-29T07:50:25.689Z,16.45
2017-10-29T07:51:06.220Z,16.5
2017-10-29T07:51:46.640Z,16.51
2017-10-29T07:52:27.286Z,16.54
2017-10-29T07:53:07.588Z,16.52
2017-10-29T07:53:48.030Z,16.54
2017-10-29T07:54:28.397Z,16.52
2017-10-29T07:55:08.896Z,16.52
2017-10-29T07:55:49.654Z,16.52
2017-10-29T07:56:30.143Z,16.42
2017-10-29T07:57:10.459Z,16.54
2017-10-29T07:57:50.877Z,16.47
2017-10-29T07:58:31.347Z,16.6
2017-10-29T07:59:11.846Z,16.6
2017-10-29T07:59:52.323Z,16.66
2017-10-29T08:00:32.820Z,16.72
2017-10-29T08:01:13.276Z,16.8
2017-10-29T08:01:53.714Z,16.75
2017-10-29T08:02:34.217Z,16.78
2017-10-29T08:03:14.614Z,16.67
2017-10-29T08:03:55.044Z,16.77
2017-10-29T08:04:35.552Z,16.81
2017-10-29T08:05:16.031Z,16.91
2017-10-29T08:05:56.376Z,16.99
2017-10-29T08:07:51.965Z,17.02
2017-10-29T08:08:33.285Z,17
2017-10-29T08:09:13.737Z,17.09
2017-10-29T08:09:54.266Z,17.1
2017-10-29T08:10:34.736Z,17.03
2017-10-29T08:11:15.261Z,17.1
2017-10-29T08:11:55.905Z,17.17
2017-10-29T08:12:36.192Z,17.2
2017-10-29T08:13:16.856Z,17.22
2017-10-29T08:13:57.350Z,17.36
2017-10-29T08:14:37.700Z,17.38
2017-10-29T08:15:18.063Z,17.49
2017-10-29T08:15:58.495Z,17.51
2017-10-29T08:16:38.876Z,17.49
2017-10-29T08:17:19.360Z,17.58
2017-10-29T08:17:59.739Z,17.71
2017-10-29T08:18:40.267Z,17.63
2017-10-29T08:19:20.642Z,17.66
2017-10-29T08:20:01.195Z,17.58
2017-10-29T08:20:41.651Z,17.62
2017-10-29T08:21:22.225Z,17.7
2017-10-29T08:22:02.891Z,17.8
2017-10-29T08:22:43.198Z,17.8
2017-10-29T08:23:23.673Z,17.84
2017-10-29T08:24:04.169Z,17.96
2017-10-29T08:24:44.592Z,18.09
2017-10-29T08:25:25.079Z,18.13
2017-10-29T08:26:05.464Z,18.1
2017-10-29T08:26:45.900Z,18.19
2017-10-29T08:27:26.369Z,18.2
2017-10-29T08:28:06.901Z,18.07
2017-10-29T08:28:47.404Z,17.94
2017-10-29T08:29:27.868Z,17.96
2017-10-29T08:30:08.336Z,17.83
2017-10-29T08:30:48.942Z,17.7
2017-10-29T08:31:29.690Z,17.74
2017-10-29T08:33:46.304Z,17.83
2017-10-29T08:34:43.587Z,18.02
2017-10-29T08:35:39.002Z,18.1
2017-10-29T08:36:37.291Z,18.14
2017-10-29T08:37:34.787Z,18.19
2017-10-29T08:38:34.005Z,18.21
2017-10-29T08:39:28.395Z,18.31
2017-10-29T08:41:10.578Z,18.59
2017-10-29T08:42:04.557Z,18.5
2017-10-29T08:42:58.934Z,18.47
2017-10-29T08:47:02.232Z,18.83
2017-10-29T08:47:59.281Z,18.91
2017-10-29T08:50:06.204Z,19.05
2017-10-29T08:50:46.770Z,19.13
2017-10-29T08:51:27.120Z,19.07
2017-10-29T08:52:07.641Z,19.25
2017-10-29T08:52:48.171Z,19.28
2017-10-29T08:53:28.441Z,19.28
2017-10-29T08:54:08.897Z,19.5
2017-10-29T08:54:49.422Z,19.49
2017-10-29T08:55:29.877Z,19.61
2017-10-29T08:56:10.550Z,19.61
2017-10-29T08:56:51.163Z,19.58
2017-10-29T08:57:31.878Z,19.57
2017-10-29T08:58:12.325Z,19.75
2017-10-29T08:58:52.796Z,19.6
2017-10-29T08:59:33.295Z,19.5
2017-10-29T09:00:13.788Z,19.38
2017-10-29T09:00:54.120Z,19.27
2017-10-29T09:01:34.524Z,19.32
2017-10-29T09:02:14.966Z,19.3
2017-10-29T09:02:55.386Z,19.49
2017-10-29T09:03:35.865Z,19.5
2017-10-29T09:04:16.433Z,19.62
2017-10-29T09:04:56.807Z,19.6
2017-10-29T09:05:37.354Z,19.61
2017-10-29T09:06:17.878Z,19.55
2017-10-29T09:06:58.432Z,19.58
2017-10-29T09:07:38.827Z,19.6
2017-10-29T09:08:19.410Z,19.57
2017-10-29T09:08:59.858Z,19.6
2017-10-29T09:09:40.350Z,19.55
2017-10-29T09:10:21.782Z,19.58
2017-10-29T09:11:02.193Z,19.52
2017-10-29T09:11:42.587Z,19.62
2017-10-29T09:12:23.029Z,19.79
2017-10-29T09:13:03.788Z,19.75
2017-10-29T09:13:44.323Z,19.82
2017-10-29T09:14:24.841Z,19.79
2017-10-29T09:15:05.293Z,19.82
2017-10-29T09:15:45.809Z,19.79
2017-10-29T09:16:26.354Z,19.79
2017-10-29T09:17:06.873Z,19.87
2017-10-29T09:17:47.309Z,19.86
2017-10-29T09:18:27.760Z,19.89
2017-10-29T09:19:08.157Z,19.9
2017-10-29T09:19:48.562Z,19.92
2017-10-29T09:20:29.448Z,19.82
2017-10-29T09:21:10.557Z,19.71
2017-10-29T09:21:50.984Z,19.76
2017-10-29T09:22:31.687Z,19.71
2017-10-29T09:23:12.057Z,19.76
2017-10-29T09:23:52.538Z,19.8
2017-10-29T09:24:32.916Z,19.85
2017-10-29T09:25:13.500Z,20.07
2017-10-29T09:25:53.908Z,20.16
2017-10-29T09:26:34.390Z,20.07
2017-10-29T09:27:14.834Z,20.08
2017-10-29T09:27:55.277Z,20.07
2017-10-29T09:28:35.746Z,20.1
2017-10-29T09:29:16.279Z,20.15
2017-10-29T09:29:57.513Z,20.04
2017-10-29T09:30:37.909Z,20.16
2017-10-29T09:31:18.349Z,20.22
2017-10-29T09:31:58.784Z,20.31
2017-10-29T09:32:39.237Z,20.33
2017-10-29T09:33:19.694Z,20.31
2017-10-29T09:34:00.237Z,20.15
2017-10-29T09:34:40.791Z,20.26
2017-10-29T09:35:21.156Z,20.42
2017-10-29T09:36:01.523Z,20.3
2017-10-29T09:36:42.029Z,20.2
2017-10-29T09:37:22.502Z,20.25
2017-10-29T09:38:03.140Z,20.33
2017-10-29T09:38:43.783Z,20.25
2017-10-29T09:39:24.142Z,20.04
2017-10-29T09:40:04.503Z,19.98
2017-10-29T09:40:45.259Z,19.87
2017-10-29T09:41:25.816Z,19.87
2017-10-29T09:42:06.264Z,19.87
2017-10-29T09:42:46.688Z,19.89
2017-10-29T09:43:27.334Z,19.78
2017-10-29T09:44:07.904Z,19.83
2017-10-29T09:44:48.415Z,19.86
2017-10-29T09:45:28.910Z,19.87
2017-10-29T09:46:09.377Z,19.9
2017-10-29T09:46:49.912Z,20.05
2017-10-29T09:47:30.337Z,20.08
2017-10-29T09:48:10.893Z,20.2
2017-10-29T09:48:51.357Z,20.34
2017-10-29T09:49:31.638Z,20.44